Time;durP1;ratioP1;P1;durP2;ratioP2;P2;SDS_P1;SDS_P2;PMS_P1;PMS_P2;Temp;Humidity;BMP_temperature;BMP_pressure;BME280_temperature;BME280_humidity;BME280_pressure;Samples;Min_cycle;Max_cycle;Signal;HPM_P1;HPM_P2
2021/10/03 00:02:28;;;;;;;26.73;12.45;;;;;;;;;;8271508;28;20079;-72
2021/10/03 00:06:33;;;;;;;;;;;;;;;;;;8249785;28;20408;-72
2021/10/03 00:10:38;;;;;;;26.02;12.80;;;;;;;;;;8224869;28;20367;-73
2021/10/03 00:14:44;;;;;;;30.08;13.38;;;;;;;;;;8223854;28;20053;-73
2021/10/03 00:18:51;;;;;;;28.60;12.35;;;;;;;;;;8224189;28;20350;-72
2021/10/03 00:23:15;;;;;;;30.20;14.40;;;;;;;;;;8225085;28;20352;-73
2021/10/03 00:27:21;;;;;;;24.20;13.07;;;;;;;;;;8226418;28;20475;-72
2021/10/03 00:31:25;;;;;;;26.92;13.38;;;;;;;;;;8225139;28;20037;-73
2021/10/03 00:35:30;;;;;;;28.02;13.25;;;;;;;;;;8206666;28;20057;-73
2021/10/03 00:39:36;;;;;;;27.50;11.75;;;;;;;;;;8224363;28;20045;-73
2021/10/03 00:43:41;;;;;;;29.73;12.90;;;;;;;;;;8224265;28;20341;-72
2021/10/03 00:47:47;;;;;;;26.42;11.75;;;;;;;;;;8223778;28;20330;-72
2021/10/03 00:51:52;;;;;;;26.73;12.13;;;;;;;;;;8224297;28;20045;-72
2021/10/03 00:55:58;;;;;;;24.05;11.63;;;;;;;;;;8223968;28;20380;-73
2021/10/03 01:00:06;;;;;;;24.55;11.07;;;;;;;;;;8222052;28;20362;-73
2021/10/03 01:04:13;;;;;;;30.58;11.98;;;;;;;;;;8226093;28;20357;-73
2021/10/03 01:08:18;;;;;;;24.33;11.65;;;;;;;;;;8227832;28;20477;-72
2021/10/03 01:12:23;;;;;;;24.02;11.23;;;;;;;;;;8229546;28;20472;-73
2021/10/03 01:16:28;;;;;;;25.65;11.10;;;;;;;;;;8230110;28;20344;-73
2021/10/03 01:20:34;;;;;;;25.63;10.65;;;;;;;;;;8229528;28;20134;-73
2021/10/03 01:24:41;;;;;;;21.60;9.98;;;;;;;;;;8228510;28;20494;-73
2021/10/03 01:28:44;;;;;;;24.10;10.95;;;;;;;;;;8232399;28;20445;-73
2021/10/03 01:32:49;;;;;;;20.05;10.18;;;;;;;;;;8231286;28;20356;-73
2021/10/03 01:36:55;;;;;;;23.00;11.07;;;;;;;;;;8244943;28;20472;-73
2021/10/03 01:41:00;;;;;;;22.92;11.23;;;;;;;;;;8230087;28;20472;-73
2021/10/03 01:45:08;;;;;;;25.55;9.60;;;;;;;;;;8230864;28;20103;-73
2021/10/03 01:49:13;;;;;;;23.00;9.35;;;;;;;;;;8230379;28;20475;-73
2021/10/03 01:53:25;;;;;;;20.58;8.43;;;;;;;;;;8227884;28;20456;-73
2021/10/03 01:57:30;;;;;;;19.40;8.20;;;;;;;;;;8245490;28;20045;-73
2021/10/03 02:01:43;;;;;;;16.35;9.68;;;;;;;;;;8227960;28;20053;-73
2021/10/03 02:05:49;;;;;;;17.25;9.25;;;;;;;;;;8228495;28;20459;-73
2021/10/03 02:09:55;;;;;;;19.45;7.90;;;;;;;;;;8228815;28;20480;-73
2021/10/03 02:14:00;;;;;;;15.85;8.65;;;;;;;;;;8229108;28;20396;-73
2021/10/03 02:18:11;;;;;;;15.68;8.20;;;;;;;;;;8227125;28;20484;-72
2021/10/03 02:22:18;;;;;;;22.50;7.53;;;;;;;;;;8226733;28;20467;-74
2021/10/03 02:26:23;;;;;;;18.85;8.20;;;;;;;;;;8228053;28;20371;-73
2021/10/03 02:30:30;;;;;;;18.08;7.90;;;;;;;;;;8226499;28;20384;-73
2021/10/03 02:34:35;;;;;;;14.85;8.20;;;;;;;;;;8228880;28;20053;-72
2021/10/03 02:38:40;;;;;;;16.27;8.23;;;;;;;;;;8228569;28;20464;-73
2021/10/03 02:42:45;;;;;;;21.90;9.48;;;;;;;;;;8228292;28;20349;-73
2021/10/03 02:46:50;;;;;;;14.82;8.02;;;;;;;;;;8226809;28;20357;-73
2021/10/03 02:50:56;;;;;;;12.80;7.10;;;;;;;;;;8226933;28;20449;-73
2021/10/03 02:55:01;;;;;;;14.48;7.65;;;;;;;;;;8228868;28;20072;-73
2021/10/03 02:59:06;;;;;;;11.45;6.72;;;;;;;;;;8228572;28;20380;-73
2021/10/03 03:03:12;;;;;;;18.50;7.82;;;;;;;;;;8226795;28;20471;-73
2021/10/03 03:07:17;;;;;;;16.13;8.20;;;;;;;;;;8227396;28;20060;-73
2021/10/03 03:11:22;;;;;;;17.88;8.85;;;;;;;;;;8225501;28;20480;-73
2021/10/03 03:15:28;;;;;;;17.17;8.02;;;;;;;;;;8226680;28;20059;-73
2021/10/03 03:19:33;;;;;;;20.42;8.80;;;;;;;;;;8227803;28;20593;-73
2021/10/03 03:23:38;;;;;;;17.25;8.77;;;;;;;;;;8241702;28;20060;-73
2021/10/03 03:27:44;;;;;;;20.05;9.70;;;;;;;;;;8241035;28;20067;-74
2021/10/03 03:31:49;;;;;;;21.27;11.40;;;;;;;;;;8225028;28;20498;-73
2021/10/03 03:35:55;;;;;;;20.05;8.90;;;;;;;;;;8225342;28;20375;-73
2021/10/03 03:40:00;;;;;;;16.70;8.15;;;;;;;;;;8224763;28;20352;-73
2021/10/03 03:44:05;;;;;;;16.15;7.70;;;;;;;;;;8225940;28;20326;-73
2021/10/03 03:48:11;;;;;;;21.45;7.57;;;;;;;;;;8225491;28;20403;-73
2021/10/03 03:52:16;;;;;;;19.58;7.43;;;;;;;;;;8225382;28;20053;-74
2021/10/03 03:56:21;;;;;;;15.00;7.45;;;;;;;;;;8224552;28;20348;-73
2021/10/03 04:00:26;;;;;;;17.08;7.18;;;;;;;;;;8225653;28;20475;-73
2021/10/03 04:04:32;;;;;;;18.27;7.20;;;;;;;;;;8224651;28;20079;-73
2021/10/03 04:08:39;;;;;;;14.65;7.43;;;;;;;;;;8224446;28;20479;-73
2021/10/03 04:12:45;;;;;;;13.75;6.38;;;;;;;;;;8226056;28;20072;-73
2021/10/03 04:16:50;;;;;;;11.77;6.75;;;;;;;;;;8224853;28;20050;-73
2021/10/03 04:20:55;;;;;;;17.33;7.72;;;;;;;;;;8225026;28;20360;-73
2021/10/03 04:25:00;;;;;;;13.23;6.18;;;;;;;;;;8207764;28;20050;-73
2021/10/03 04:29:06;;;;;;;12.23;6.97;;;;;;;;;;8226395;28;20425;-74
2021/10/03 04:33:11;;;;;;;16.40;6.15;;;;;;;;;;8225431;28;20499;-73
2021/10/03 04:37:16;;;;;;;15.57;6.35;;;;;;;;;;8225688;28;20472;-74
2021/10/03 04:41:22;;;;;;;13.07;6.13;;;;;;;;;;8225987;28;20071;-73
2021/10/03 04:45:27;;;;;;;13.85;7.53;;;;;;;;;;8231051;28;20042;-74
2021/10/03 04:49:32;;;;;;;13.18;7.28;;;;;;;;;;8229373;28;20067;-73
2021/10/03 04:53:37;;;;;;;16.00;6.78;;;;;;;;;;8229350;28;20488;-74
2021/10/03 04:57:47;;;;;;;13.93;6.30;;;;;;;;;;8231090;28;20050;-74
2021/10/03 05:01:52;;;;;;;15.02;6.55;;;;;;;;;;8244569;28;20376;-74
2021/10/03 05:05:58;;;;;;;17.08;6.90;;;;;;;;;;8245645;28;20575;-74
2021/10/03 05:10:04;;;;;;;11.73;7.05;;;;;;;;;;8245700;28;20379;-74
2021/10/03 05:14:10;;;;;;;13.82;7.13;;;;;;;;;;8232120;28;20391;-74
2021/10/03 05:18:15;;;;;;;11.57;6.18;;;;;;;;;;8230240;28;20061;-74
2021/10/03 05:22:20;;;;;;;15.05;7.80;;;;;;;;;;8231780;28;20472;-73
2021/10/03 05:26:26;;;;;;;15.18;7.10;;;;;;;;;;8230681;28;20063;-74
2021/10/03 05:30:31;;;;;;;17.08;7.13;;;;;;;;;;8229782;28;20041;-74
2021/10/03 05:34:36;;;;;;;13.23;7.43;;;;;;;;;;8230474;28;20383;-74
2021/10/03 05:38:41;;;;;;;16.90;7.43;;;;;;;;;;8228063;28;20364;-73
2021/10/03 05:42:47;;;;;;;14.40;7.35;;;;;;;;;;8229839;28;20404;-74
2021/10/03 05:46:52;;;;;;;13.45;7.40;;;;;;;;;;8229358;28;20436;-74
2021/10/03 05:50:57;;;;;;;18.63;7.82;;;;;;;;;;8229915;28;20049;-75
2021/10/03 05:55:03;;;;;;;13.13;7.57;;;;;;;;;;8211210;28;20494;-74
2021/10/03 05:59:12;;;;;;;13.07;7.32;;;;;;;;;;8228489;28;20441;-74
2021/10/03 06:03:17;;;;;;;15.18;7.93;;;;;;;;;;8243419;28;20392;-74
2021/10/03 06:07:22;;;;;;;14.77;8.32;;;;;;;;;;8228708;28;20346;-74
2021/10/03 06:11:28;;;;;;;18.83;8.30;;;;;;;;;;8227877;28;20349;-74
2021/10/03 06:15:35;;;;;;;12.45;8.15;;;;;;;;;;8228657;28;20369;-74
2021/10/03 06:19:40;;;;;;;19.67;8.35;;;;;;;;;;8226987;28;20480;-74
2021/10/03 06:23:46;;;;;;;17.75;8.43;;;;;;;;;;8228696;28;20499;-74
2021/10/03 06:27:51;;;;;;;19.05;7.70;;;;;;;;;;8226708;28;20475;-74
2021/10/03 06:31:56;;;;;;;14.93;6.40;;;;;;;;;;8228617;28;20360;-75
2021/10/03 06:36:01;;;;;;;19.17;7.60;;;;;;;;;;8227960;28;20068;-75
2021/10/03 06:40:08;;;;;;;11.43;6.53;;;;;;;;;;8228116;28;20042;-75
2021/10/03 06:44:13;;;;;;;12.13;6.82;;;;;;;;;;8243438;28;20499;-73
2021/10/03 06:48:18;;;;;;;12.80;7.07;;;;;;;;;;8226675;28;20359;-74
2021/10/03 06:52:23;;;;;;;12.35;6.60;;;;;;;;;;8241865;28;20368;-73
2021/10/03 06:56:28;;;;;;;9.45;6.13;;;;;;;;;;8226366;28;20407;-74
2021/10/03 07:00:34;;;;;;;12.60;6.00;;;;;;;;;;8227113;28;20487;-73
2021/10/03 07:04:40;;;;;;;9.23;5.53;;;;;;;;;;8224990;28;20383;-73
2021/10/03 07:08:45;;;;;;;12.43;5.68;;;;;;;;;;8226963;28;20072;-74
2021/10/03 07:12:50;;;;;;;10.80;5.53;;;;;;;;;;8225770;28;20379;-72
2021/10/03 07:16:55;;;;;;;11.65;5.18;;;;;;;;;;8227878;28;20306;-72
2021/10/03 07:21:03;;;;;;;9.15;5.20;;;;;;;;;;8226434;28;20047;-72
2021/10/03 07:25:09;;;;;;;10.63;5.10;;;;;;;;;;8242592;28;20045;-73
2021/10/03 07:29:14;;;;;;;11.60;5.00;;;;;;;;;;8227127;28;20963;-73
2021/10/03 07:33:19;;;;;;;8.93;4.75;;;;;;;;;;8226590;28;20521;-74
2021/10/03 07:37:24;;;;;;;6.18;3.80;;;;;;;;;;8226596;28;20072;-73
2021/10/03 07:41:29;;;;;;;8.65;4.35;;;;;;;;;;8226423;28;20038;-73
2021/10/03 07:45:35;;;;;;;10.15;4.25;;;;;;;;;;8226774;28;20464;-73
2021/10/03 07:49:40;;;;;;;5.85;4.10;;;;;;;;;;8225737;28;20376;-73
2021/10/03 07:53:45;;;;;;;5.07;3.35;;;;;;;;;;8224507;28;20371;-73
2021/10/03 07:57:50;;;;;;;5.20;3.25;;;;;;;;;;8226106;28;20326;-73
2021/10/03 08:01:55;;;;;;;8.30;3.47;;;;;;;;;;8225855;28;20054;-73
2021/10/03 08:06:01;;;;;;;5.78;3.20;;;;;;;;;;8224937;28;20387;-73
2021/10/03 08:10:06;;;;;;;8.07;3.60;;;;;;;;;;8224455;28;20049;-73
2021/10/03 08:14:11;;;;;;;9.77;4.28;;;;;;;;;;8224755;28;20463;-74
2021/10/03 08:18:17;;;;;;;7.00;3.65;;;;;;;;;;8225795;28;20389;-74
2021/10/03 08:22:22;;;;;;;6.78;3.47;;;;;;;;;;8226628;28;20106;-74
2021/10/03 08:26:27;;;;;;;6.35;3.13;;;;;;;;;;8225840;28;20033;-73
2021/10/03 08:30:32;;;;;;;6.63;3.40;;;;;;;;;;8225087;28;20476;-74
2021/10/03 08:34:37;;;;;;;6.55;3.40;;;;;;;;;;8224461;28;20337;-74
2021/10/03 08:38:43;;;;;;;5.53;3.10;;;;;;;;;;8224466;28;20379;-74
2021/10/03 08:42:49;;;;;;;7.65;3.17;;;;;;;;;;8173051;28;20468;-73
2021/10/03 08:46:55;;;;;;;8.75;3.45;;;;;;;;;;8226268;28;20480;-74
2021/10/03 08:51:01;;;;;;;7.32;3.67;;;;;;;;;;8222560;28;20053;-74
2021/10/03 08:55:09;;;;;;;11.60;4.05;;;;;;;;;;8225452;28;20072;-74
2021/10/03 08:59:14;;;;;;;6.45;2.78;;;;;;;;;;8224876;28;20072;-74
2021/10/03 09:03:20;;;;;;;5.70;2.67;;;;;;;;;;8224071;28;20045;-73
2021/10/03 09:07:25;;;;;;;3.75;2.35;;;;;;;;;;8223455;28;20515;-74
2021/10/03 09:11:35;;;;;;;4.35;2.33;;;;;;;;;;8224135;28;20491;-74
2021/10/03 09:15:41;;;;;;;5.22;2.25;;;;;;;;;;8238830;28;20464;-73
2021/10/03 09:20:22;;;;;;;3.65;2.33;;;;;;;;;;8222656;28;20483;-73
2021/10/03 09:24:25;;;;;;;3.45;2.15;;;;;;;;;;8224135;28;20475;-73
2021/10/03 09:28:34;;;;;;;5.20;2.20;;;;;;;;;;8226027;28;20053;-74
2021/10/03 09:32:39;;;;;;;2.58;1.77;;;;;;;;;;8231194;28;20465;-74
2021/10/03 09:36:44;;;;;;;4.18;2.15;;;;;;;;;;8229800;28;20046;-74
2021/10/03 09:41:08;;;;;;;11.95;2.15;;;;;;;;;;8228388;28;20349;-75
2021/10/03 09:45:17;;;;;;;3.17;2.20;;;;;;;;;;8228840;28;20473;-71
2021/10/03 09:49:25;;;;;;;5.25;2.13;;;;;;;;;;8230630;28;20563;-74
2021/10/03 09:53:31;;;;;;;4.45;2.40;;;;;;;;;;8229428;28;20354;-74
2021/10/03 09:57:38;;;;;;;2.92;1.98;;;;;;;;;;8211662;28;20493;-75
2021/10/03 10:01:46;;;;;;;3.38;1.90;;;;;;;;;;8228882;28;20460;-73
2021/10/03 10:05:51;;;;;;;2.22;1.83;;;;;;;;;;8228436;28;20472;-74
2021/10/03 10:09:56;;;;;;;5.07;1.98;;;;;;;;;;8228795;28;20466;-74
2021/10/03 10:14:04;;;;;;;4.85;1.90;;;;;;;;;;8229088;28;20457;-73
2021/10/03 10:18:24;;;;;;;5.45;2.13;;;;;;;;;;8227048;28;20057;-74
2021/10/03 10:22:37;;;;;;;3.95;1.83;;;;;;;;;;8228938;28;20486;-75
2021/10/03 10:26:42;;;;;;;2.80;1.92;;;;;;;;;;8228420;28;20518;-73
2021/10/03 10:31:18;;;;;;;2.30;1.65;;;;;;;;;;8192361;28;20480;-73
2021/10/03 10:35:24;;;;;;;6.88;2.35;;;;;;;;;;8227413;28;20373;-75
2021/10/03 10:39:29;;;;;;;6.03;2.47;;;;;;;;;;8226638;28;20488;-73
2021/10/03 10:43:37;;;;;;;6.13;1.95;;;;;;;;;;8226173;28;20041;-74
2021/10/03 10:48:12;;;;;;;16.42;2.50;;;;;;;;;;8228091;28;20502;-74
2021/10/03 10:52:20;;;;;;;3.75;2.03;;;;;;;;;;8229032;28;20436;-74
2021/10/03 10:56:30;;;;;;;5.00;1.95;;;;;;;;;;8227166;28;20049;-74
2021/10/03 11:00:54;;;;;;;2.65;2.10;;;;;;;;;;8226298;28;20476;-75
2021/10/03 11:05:36;;;;;;;6.10;1.70;;;;;;;;;;8227133;28;20381;-73
2021/10/03 11:10:02;;;;;;;3.33;2.05;;;;;;;;;;8228733;28;20452;-74
2021/10/03 11:14:08;;;;;;;3.28;1.92;;;;;;;;;;8224507;28;20468;-74
2021/10/03 11:18:13;;;;;;;3.72;2.33;;;;;;;;;;8226830;28;20465;-74
2021/10/03 11:22:25;;;;;;;3.50;2.08;;;;;;;;;;8227584;28;20449;-73
2021/10/03 11:26:59;;;;;;;3.47;1.70;;;;;;;;;;8225916;28;20380;-74
2021/10/03 11:31:05;;;;;;;4.65;1.98;;;;;;;;;;8227820;28;20337;-73
2021/10/03 11:35:12;;;;;;;5.25;2.05;;;;;;;;;;8226071;28;20472;-74
2021/10/03 11:39:18;;;;;;;5.13;2.00;;;;;;;;;;8225836;28;20377;-74
2021/10/03 11:43:33;;;;;;;3.72;1.95;;;;;;;;;;8225916;28;20393;-73
2021/10/03 11:47:55;;;;;;;3.55;2.50;;;;;;;;;;8224452;28;20487;-74
2021/10/03 11:52:01;;;;;;;4.43;2.00;;;;;;;;;;8224417;28;20526;-73
2021/10/03 11:56:13;;;;;;;3.58;2.22;;;;;;;;;;8224452;28;20463;-74
2021/10/03 12:00:25;;;;;;;6.18;2.03;;;;;;;;;;8226910;28;20502;-74
2021/10/03 12:04:30;;;;;;;3.13;2.13;;;;;;;;;;8191461;28;20480;-73
2021/10/03 12:08:39;;;;;;;4.30;2.30;;;;;;;;;;8225217;28;20098;-73
2021/10/03 12:12:57;;;;;;;6.28;2.53;;;;;;;;;;8225029;28;20499;-74
2021/10/03 12:17:03;;;;;;;3.25;2.17;;;;;;;;;;8224014;28;20469;-74
2021/10/03 12:21:13;;;;;;;3.70;2.20;;;;;;;;;;8226485;28;20049;-73
2021/10/03 12:25:19;;;;;;;5.18;2.20;;;;;;;;;;8223906;28;20365;-74
2021/10/03 12:29:28;;;;;;;6.57;2.67;;;;;;;;;;8223572;28;20045;-73
2021/10/03 12:33:38;;;;;;;5.47;2.10;;;;;;;;;;8224496;28;20392;-74
2021/10/03 12:37:44;;;;;;;4.90;2.60;;;;;;;;;;8223260;28;20457;-74
2021/10/03 12:41:53;;;;;;;5.07;2.42;;;;;;;;;;8224792;28;20487;-73
2021/10/03 12:45:58;;;;;;;6.15;2.10;;;;;;;;;;8222379;28;20415;-73
2021/10/03 12:50:05;;;;;;;3.40;2.13;;;;;;;;;;8239285;28;20480;-73
2021/10/03 12:54:10;;;;;;;6.43;2.45;;;;;;;;;;8225005;28;20472;-74
2021/10/03 12:58:15;;;;;;;6.65;2.60;;;;;;;;;;8224245;28;20037;-73
2021/10/03 13:02:20;;;;;;;6.38;2.50;;;;;;;;;;8226182;28;20495;-74
2021/10/03 13:06:41;;;;;;;5.10;2.28;;;;;;;;;;8231251;28;20371;-73
2021/10/03 13:10:46;;;;;;;4.45;3.03;;;;;;;;;;8246136;28;20042;-73
2021/10/03 13:14:53;;;;;;;6.35;2.85;;;;;;;;;;8231072;28;20063;-73
2021/10/03 13:18:58;;;;;;;3.75;2.33;;;;;;;;;;8245122;28;20494;-73
2021/10/03 13:23:05;;;;;;;5.50;2.95;;;;;;;;;;8231857;28;20053;-73
2021/10/03 13:27:10;;;;;;;4.90;2.40;;;;;;;;;;8228930;28;20049;-73
2021/10/03 13:31:16;;;;;;;6.95;2.60;;;;;;;;;;8230509;28;20352;-73
2021/10/03 13:35:21;;;;;;;4.15;2.55;;;;;;;;;;8245573;28;20076;-74
2021/10/03 13:39:26;;;;;;;7.40;2.63;;;;;;;;;;8230325;28;20445;-72
2021/10/03 13:43:32;;;;;;;6.55;2.20;;;;;;;;;;8229932;28;20034;-73
2021/10/03 13:47:37;;;;;;;6.68;2.35;;;;;;;;;;8230480;28;20045;-73
2021/10/03 13:51:42;;;;;;;4.75;2.55;;;;;;;;;;8194880;28;20491;-74
2021/10/03 13:55:48;;;;;;;3.70;2.78;;;;;;;;;;8226877;28;20567;-73
2021/10/03 13:59:53;;;;;;;3.72;2.45;;;;;;;;;;8228536;28;20037;-74
2021/10/03 14:03:59;;;;;;;4.57;2.72;;;;;;;;;;8228916;28;20038;-73
2021/10/03 14:08:05;;;;;;;3.83;2.70;;;;;;;;;;8227881;28;20052;-74
2021/10/03 14:12:10;;;;;;;4.72;2.65;;;;;;;;;;8229440;28;20542;-73
2021/10/03 14:16:15;;;;;;;8.38;2.90;;;;;;;;;;8229584;28;20348;-73
2021/10/03 14:20:22;;;;;;;7.63;2.55;;;;;;;;;;8227883;28;20376;-73
2021/10/03 14:24:29;;;;;;;4.95;2.85;;;;;;;;;;8228545;28;20472;-74
2021/10/03 14:28:34;;;;;;;7.38;3.10;;;;;;;;;;8228990;28;20518;-74
2021/10/03 14:32:39;;;;;;;4.60;2.95;;;;;;;;;;8230750;28;20356;-73
2021/10/03 14:36:45;;;;;;;4.10;2.50;;;;;;;;;;8228112;28;20514;-73
2021/10/03 14:40:51;;;;;;;5.88;2.80;;;;;;;;;;8229152;28;20484;-74
2021/10/03 14:44:56;;;;;;;9.75;2.70;;;;;;;;;;8228635;28;20468;-73
2021/10/03 14:49:01;;;;;;;3.53;2.65;;;;;;;;;;8242690;28;20503;-73
2021/10/03 14:53:07;;;;;;;6.15;3.08;;;;;;;;;;8227143;28;20472;-74
2021/10/03 14:57:13;;;;;;;3.60;2.40;;;;;;;;;;8229058;28;20392;-74
2021/10/03 15:01:18;;;;;;;3.80;2.40;;;;;;;;;;8226724;28;20366;-74
2021/10/03 15:05:24;;;;;;;4.78;2.55;;;;;;;;;;8228343;28;20063;-74
2021/10/03 15:09:29;;;;;;;4.45;2.63;;;;;;;;;;8226738;28;20491;-74
2021/10/03 15:13:34;;;;;;;5.38;3.03;;;;;;;;;;8224989;28;20372;-74
2021/10/03 15:17:40;;;;;;;6.00;2.70;;;;;;;;;;8227094;28;20468;-73
2021/10/03 15:21:45;;;;;;;8.60;3.10;;;;;;;;;;8226127;28;20049;-73
2021/10/03 15:25:50;;;;;;;9.32;3.08;;;;;;;;;;8225818;28;20045;-74
2021/10/03 15:29:57;;;;;;;5.07;2.85;;;;;;;;;;8224922;28;20502;-74
2021/10/03 15:34:03;;;;;;;4.75;3.00;;;;;;;;;;8226043;28;20075;-74
2021/10/03 15:38:08;;;;;;;5.85;3.13;;;;;;;;;;8228322;28;20071;-74
2021/10/03 15:42:13;;;;;;;6.80;2.72;;;;;;;;;;8226984;28;20376;-74
2021/10/03 15:46:18;;;;;;;4.53;2.83;;;;;;;;;;8225885;28;20384;-74
2021/10/03 15:50:23;;;;;;;4.82;2.53;;;;;;;;;;8227327;28;20487;-73
2021/10/03 15:54:40;;;;;;;9.53;2.90;;;;;;;;;;8225923;28;20045;-73
2021/10/03 15:58:46;;;;;;;11.15;3.03;;;;;;;;;;8224040;28;20488;-73
2021/10/03 16:02:51;;;;;;;5.15;2.97;;;;;;;;;;8224727;28;20465;-73
2021/10/03 16:06:56;;;;;;;7.93;4.13;;;;;;;;;;8240291;28;20445;-73
2021/10/03 16:11:03;;;;;;;15.68;6.30;;;;;;;;;;8226847;28;20437;-73
2021/10/03 16:15:09;;;;;;;11.77;5.15;;;;;;;;;;8224500;28;20361;-73
2021/10/03 16:19:14;;;;;;;4.20;2.80;;;;;;;;;;8224617;28;20536;-74
2021/10/03 16:23:20;;;;;;;4.63;2.67;;;;;;;;;;8223204;28;20053;-73
2021/10/03 16:27:25;;;;;;;5.68;2.70;;;;;;;;;;8225225;28;20049;-73
2021/10/03 16:31:32;;;;;;;6.55;3.00;;;;;;;;;;8224409;28;20056;-73
2021/10/03 16:35:37;;;;;;;4.57;2.90;;;;;;;;;;8224540;28;20456;-73
2021/10/03 16:39:42;;;;;;;10.65;4.40;;;;;;;;;;8226977;28;20485;-73
2021/10/03 16:43:47;;;;;;;6.60;3.55;;;;;;;;;;8239556;28;20478;-74
2021/10/03 16:47:54;;;;;;;4.95;3.00;;;;;;;;;;8224593;28;20360;-73
2021/10/03 16:51:59;;;;;;;8.27;3.60;;;;;;;;;;8224194;28;20476;-73
2021/10/03 16:56:05;;;;;;;6.70;3.88;;;;;;;;;;8224645;28;20465;-73
2021/10/03 17:00:11;;;;;;;5.40;3.20;;;;;;;;;;8222465;28;20507;-73
2021/10/03 17:04:16;;;;;;;8.65;3.97;;;;;;;;;;8222479;28;20449;-73
2021/10/03 17:08:21;;;;;;;28.40;13.77;;;;;;;;;;8224862;28;20049;-74
2021/10/03 17:12:30;;;;;;;26.33;15.48;;;;;;;;;;8207258;28;20318;-73
2021/10/03 17:16:38;;;;;;;16.15;10.27;;;;;;;;;;8224834;28;20407;-73
2021/10/03 17:20:43;;;;;;;17.40;8.73;;;;;;;;;;8225042;28;20341;-73
2021/10/03 17:24:48;;;;;;;46.97;21.10;;;;;;;;;;8224692;28;20476;-72
2021/10/03 17:28:53;;;;;;;72.32;30.83;;;;;;;;;;8222791;28;20499;-73
2021/10/03 17:32:58;;;;;;;60.90;26.90;;;;;;;;;;8224628;28;20046;-74
2021/10/03 17:37:05;;;;;;;135.40;48.22;;;;;;;;;;8223545;28;20499;-73
2021/10/03 17:41:15;;;;;;;86.72;33.17;;;;;;;;;;8224488;28;20685;-73
2021/10/03 17:45:20;;;;;;;143.60;55.17;;;;;;;;;;8223425;28;20408;-73
2021/10/03 17:49:26;;;;;;;100.40;41.05;;;;;;;;;;8227048;28;20349;-73
2021/10/03 17:53:31;;;;;;;80.15;34.45;;;;;;;;;;8228609;28;20483;-73
2021/10/03 17:57:36;;;;;;;52.10;25.83;;;;;;;;;;8228839;28;20383;-73
2021/10/03 18:01:46;;;;;;;87.07;41.13;;;;;;;;;;8228153;28;20519;-73
2021/10/03 18:05:51;;;;;;;63.78;28.60;;;;;;;;;;8229121;28;20469;-73
2021/10/03 18:09:56;;;;;;;39.97;20.00;;;;;;;;;;8229197;28;20610;-72
2021/10/03 18:14:01;;;;;;;22.27;10.35;;;;;;;;;;8228751;28;20510;-73
2021/10/03 18:18:06;;;;;;;19.10;11.88;;;;;;;;;;8244597;28;20477;-73
2021/10/03 18:22:12;;;;;;;11.90;5.90;;;;;;;;;;8226651;28;20473;-71
2021/10/03 18:26:17;;;;;;;14.52;6.70;;;;;;;;;;8228752;28;20452;-73
2021/10/03 18:30:22;;;;;;;11.70;7.65;;;;;;;;;;8227403;28;20341;-73
2021/10/03 18:34:27;;;;;;;22.13;7.85;;;;;;;;;;8228281;28;20041;-72
2021/10/03 18:38:32;;;;;;;11.55;5.60;;;;;;;;;;8226047;28;20064;-73
2021/10/03 18:42:38;;;;;;;13.32;4.80;;;;;;;;;;8226395;28;20504;-74
2021/10/03 18:46:43;;;;;;;10.57;5.05;;;;;;;;;;8226839;28;20345;-74
2021/10/03 18:50:49;;;;;;;15.18;7.25;;;;;;;;;;8226817;28;20508;-73
2021/10/03 18:54:54;;;;;;;16.33;5.68;;;;;;;;;;8228688;28;20452;-73
2021/10/03 18:58:59;;;;;;;9.85;5.47;;;;;;;;;;8225549;28;20385;-73
2021/10/03 19:03:04;;;;;;;12.13;5.55;;;;;;;;;;8229451;28;20473;-73
2021/10/03 19:07:10;;;;;;;9.95;4.72;;;;;;;;;;8227543;28;20072;-73
2021/10/03 19:11:16;;;;;;;14.05;5.80;;;;;;;;;;8225466;28;20057;-72
2021/10/03 19:15:21;;;;;;;13.30;5.65;;;;;;;;;;8225756;28;20465;-73
2021/10/03 19:19:26;;;;;;;11.75;5.35;;;;;;;;;;8227410;28;20483;-72
2021/10/03 19:23:32;;;;;;;12.45;5.82;;;;;;;;;;8227013;28;20473;-72
2021/10/03 19:27:37;;;;;;;11.23;6.30;;;;;;;;;;8226129;28;20456;-73
2021/10/03 19:31:43;;;;;;;11.70;6.03;;;;;;;;;;8225956;28;20369;-72
2021/10/03 19:35:51;;;;;;;12.52;6.43;;;;;;;;;;8241928;28;20326;-73
2021/10/03 19:39:56;;;;;;;10.30;5.53;;;;;;;;;;8226825;28;20373;-73
2021/10/03 19:44:04;;;;;;;9.38;5.05;;;;;;;;;;8226584;28;20037;-73
2021/10/03 19:48:10;;;;;;;9.40;5.20;;;;;;;;;;8226243;28;20472;-73
2021/10/03 19:52:16;;;;;;;10.75;5.35;;;;;;;;;;8225549;28;20476;-73
2021/10/03 19:56:23;;;;;;;9.23;5.28;;;;;;;;;;8226330;28;20345;-73
2021/10/03 20:00:30;;;;;;;11.35;6.50;;;;;;;;;;8189986;28;20396;-73
2021/10/03 20:04:34;;;;;;;7.72;3.80;;;;;;;;;;8223662;28;20457;-74
2021/10/03 20:08:40;;;;;;;9.43;4.72;;;;;;;;;;8224334;28;20488;-73
2021/10/03 20:12:45;;;;;;;7.63;4.32;;;;;;;;;;8225668;28;20046;-74
2021/10/03 20:16:50;;;;;;;10.10;3.97;;;;;;;;;;8226686;28;20472;-73
2021/10/03 20:20:55;;;;;;;8.88;4.00;;;;;;;;;;8228327;28;20476;-73
2021/10/03 20:25:01;;;;;;;7.47;3.72;;;;;;;;;;8225777;28;20151;-72
2021/10/03 20:29:06;;;;;;;7.90;4.15;;;;;;;;;;8208111;28;20461;-72
2021/10/03 20:33:13;;;;;;;12.23;4.72;;;;;;;;;;8225550;28;20467;-72
2021/10/03 20:37:18;;;;;;;8.65;3.95;;;;;;;;;;8223849;28;20479;-73
2021/10/03 20:41:23;;;;;;;8.07;3.95;;;;;;;;;;8224591;28;20461;-72
2021/10/03 20:45:31;;;;;;;4.47;3.37;;;;;;;;;;8223903;28;20472;-73
2021/10/03 20:49:36;;;;;;;7.72;3.42;;;;;;;;;;8226223;28;20364;-72
2021/10/03 20:53:42;;;;;;;11.05;3.83;;;;;;;;;;8241108;28;20041;-72
2021/10/03 20:57:49;;;;;;;7.65;3.40;;;;;;;;;;8225510;28;20689;-72
2021/10/03 21:01:55;;;;;;;9.35;3.50;;;;;;;;;;8225268;28;20057;-72
2021/10/03 21:06:01;;;;;;;8.50;3.97;;;;;;;;;;8226345;28;20049;-72
2021/10/03 21:10:10;;;;;;;7.70;3.58;;;;;;;;;;8225237;28;20361;-72
2021/10/03 21:14:15;;;;;;;6.72;4.03;;;;;;;;;;8224049;28;20460;-72
2021/10/03 21:18:21;;;;;;;7.28;3.15;;;;;;;;;;8223983;28;20356;-72
2021/10/03 21:22:27;;;;;;;5.93;3.25;;;;;;;;;;8222664;28;20053;-72
2021/10/03 21:26:35;;;;;;;6.35;3.08;;;;;;;;;;8230722;28;20072;-72
2021/10/03 21:30:40;;;;;;;6.50;3.08;;;;;;;;;;8230083;28;20038;-72
2021/10/03 21:34:46;;;;;;;8.88;3.35;;;;;;;;;;8231882;28;20352;-71
2021/10/03 21:38:51;;;;;;;5.45;3.00;;;;;;;;;;8230449;28;20357;-71
2021/10/03 21:42:56;;;;;;;8.73;3.45;;;;;;;;;;8231694;28;20478;-73
2021/10/03 21:47:02;;;;;;;6.13;3.80;;;;;;;;;;8228350;28;20461;-72
2021/10/03 21:51:08;;;;;;;5.80;3.30;;;;;;;;;;8244269;28;20480;-71
2021/10/03 21:55:13;;;;;;;5.47;3.42;;;;;;;;;;8231210;28;20461;-72
2021/10/03 21:59:19;;;;;;;8.25;3.78;;;;;;;;;;8230158;28;20427;-71
2021/10/03 22:03:27;;;;;;;7.00;3.65;;;;;;;;;;8231756;28;20365;-72
2021/10/03 22:07:32;;;;;;;7.25;3.70;;;;;;;;;;8231525;28;20049;-72
2021/10/03 22:11:37;;;;;;;4.63;3.13;;;;;;;;;;8257495;28;20495;-72
2021/10/03 22:15:45;;;;;;;6.32;3.75;;;;;;;;;;8257082;28;20356;-71
2021/10/03 22:19:51;;;;;;;6.45;3.47;;;;;;;;;;8240143;28;20053;-71
2021/10/03 22:23:56;;;;;;;5.38;3.63;;;;;;;;;;8240547;28;20476;-71
2021/10/03 22:28:03;;;;;;;6.70;3.35;;;;;;;;;;8240931;28;20075;-72
2021/10/03 22:32:09;;;;;;;5.43;3.57;;;;;;;;;;8240679;28;20176;-71
2021/10/03 22:36:14;;;;;;;7.75;3.97;;;;;;;;;;8231914;28;20476;-71
2021/10/03 22:40:19;;;;;;;9.45;4.13;;;;;;;;;;6810334;28;10000983;-73
2021/10/03 22:44:25;;;;;;;9.43;3.88;;;;;;;;;;8230575;28;20369;-72
2021/10/03 22:48:30;;;;;;;10.27;3.40;;;;;;;;;;8229568;28;20403;-71
2021/10/03 22:52:36;;;;;;;6.80;3.78;;;;;;;;;;8228338;28;20488;-72
2021/10/03 22:56:41;;;;;;;5.55;3.33;;;;;;;;;;8226632;28;20489;-72
2021/10/03 23:00:47;;;;;;;8.70;3.78;;;;;;;;;;8225333;28;20380;-72
2021/10/03 23:04:52;;;;;;;5.75;3.92;;;;;;;;;;8227590;28;20059;-71
2021/10/03 23:08:57;;;;;;;7.95;3.58;;;;;;;;;;8226277;28;20523;-72
2021/10/03 23:13:03;;;;;;;9.80;3.88;;;;;;;;;;8227392;28;20480;-72
2021/10/03 23:17:08;;;;;;;7.63;3.22;;;;;;;;;;8228874;28;20054;-71
2021/10/03 23:21:14;;;;;;;5.80;3.60;;;;;;;;;;8225512;28;20368;-72
2021/10/03 23:25:19;;;;;;;12.40;3.97;;;;;;;;;;8227128;28;20480;-71
2021/10/03 23:29:25;;;;;;;5.95;3.80;;;;;;;;;;8225651;28;20475;-71
2021/10/03 23:33:30;;;;;;;6.47;4.15;;;;;;;;;;8226267;28;20502;-72
2021/10/03 23:37:36;;;;;;;4.80;3.33;;;;;;;;;;8225524;28;20045;-72
2021/10/03 23:41:43;;;;;;;7.18;3.67;;;;;;;;;;8224626;28;20411;-72
2021/10/03 23:45:50;;;;;;;5.80;3.67;;;;;;;;;;8226914;28;20380;-72
2021/10/03 23:49:56;;;;;;;9.80;4.20;;;;;;;;;;8225761;28;20068;-72
2021/10/03 23:54:01;;;;;;;5.43;3.33;;;;;;;;;;8225808;28;20045;-71
2021/10/03 23:58:06;;;;;;;7.20;3.55;;;;;;;;;;8225918;28;20060;-72
